Data for 12/04/2009

Time Sea-Level Adjusted Pressure Absolute Pressure Temperature Relative Humidity Dew Point   
(mb) (inHg) (mb) (inHg) (C) (F) (%) (C) (F)
00:05 1020 30.12 849 25.07 -15.5 4 76 -18.9 -2
00:10 1020 30.12 849 25.07 -15.7 3.7 74 -19.3 -2.7
00:15 1020 30.12 849 25.07 -16.9 1.6 79 -19.7 -3.5
00:20 1020 30.12 849 25.07 -16.8 1.7 78 -19.8 -3.7
00:25 1020 30.12 849 25.07 -16.7 1.9 78 -19.7 -3.5
00:30 1020 30.12 849 25.07 -16.2 2.8 76 -19.5 -3.1
00:35 1019 30.09 849 25.07 -16.1 3 78 -19.1 -2.3
00:40 1019 30.09 849 25.07 -15.8 3.5 77 -19 -2.2
00:45 1019 30.09 849 25.07 -15.8 3.6 77 -19 -2.2
00:50 1019 30.09 849 25.07 -16.3 2.7 79 -19.2 -2.5
00:55 1019 30.09 848 25.04 -16.1 3 77 -19.3 -2.8
01:00 1019 30.09 848 25.04 -16.5 2.4 80 -19.2 -2.6
01:05 1019 30.09 848 25.04 -16.2 2.8 77 -19.4 -2.9
01:10 1019 30.09 848 25.04 -16.1 3 77 -19.2 -2.6
01:15 1019 30.09 848 25.04 -15.9 3.3 76 -19.3 -2.7
01:20 1019 30.09 848 25.04 -15.9 3.3 77 -19.1 -2.3
01:25 1019 30.09 848 25.04 -15.2 4.7 74 -18.7 -1.7
01:30 1019 30.09 848 25.04 -15.3 4.4 74 -19 -2.2
01:35 1019 30.09 848 25.04 -16.2 2.9 77 -19.4 -2.8
01:40 1019 30.09 848 25.04 -16.3 2.6 77 -19.5 -3.1
01:45 1019 30.09 848 25.04 -16.4 2.4 77 -19.5 -3.2
01:50 1019 30.09 848 25.04 -16.3 2.6 78 -19.4 -2.9
01:55 1019 30.09 848 25.04 -16.1 3.1 77 -19.2 -2.5
02:00 1019 30.09 848 25.04 -15.6 4 76 -19 -2.1
02:05 1019 30.09 848 25.04 -15.4 4.3 75 -18.8 -1.9
02:10 1018 30.06 848 25.04 -15.4 4.3 76 -18.8 -1.8
02:15 1018 30.06 848 25.04 -15.2 4.6 74 -18.8 -1.9
02:20 1018 30.06 847 25.01 -15.3 4.5 75 -18.8 -1.9
02:25 1018 30.06 847 25.01 -15.1 4.9 72 -19.1 -2.4
02:30 1018 30.06 847 25.01 -15.3 4.4 73 -19.2 -2.5
02:35 1018 30.06 847 25.01 -15.2 4.6 72 -19.2 -2.5
02:40 1018 30.06 847 25.01 -15.2 4.7 71 -19.3 -2.7
02:45 1018 30.06 847 25.01 -15.3 4.5 74 -18.9 -2.1
02:50 1018 30.06 847 25.01 -15.3 4.5 74 -19 -2.2
02:55 1018 30.06 847 25.01 -15.1 4.8 73 -18.9 -2
03:00 1018 30.06 847 25.01 -14.8 5.3 73 -18.7 -1.6
03:05 1018 30.06 847 25.01 -14.8 5.3 73 -18.7 -1.7
03:10 1018 30.06 847 25.01 -15 5 73 -18.8 -1.9
03:15 1018 30.06 847 25.01 -15.2 4.6 74 -18.9 -2
03:20 1017 30.03 847 25.01 -14.9 5.2 72 -18.9 -2.1
03:25 1017 30.03 847 25.01 -14.6 5.7 71 -18.9 -1.9
03:30 1017 30.03 846 24.98 -14.5 6 70 -18.7 -1.7
03:35 1017 30.03 846 24.98 -14.1 6.6 70 -18.4 -1.2
03:40 1017 30.03 846 24.98 -13.8 7.2 68 -18.5 -1.3
03:45 1017 30.03 846 24.98 -13.6 7.5 68 -18.4 -1
03:50 1017 30.03 846 24.98 -13.6 7.6 67 -18.4 -1.1
03:55 1017 30.03 846 24.98 -13.6 7.5 68 -18.3 -0.9
04:00 1017 30.03 846 24.98 -13.7 7.4 69 -18.2 -0.8
04:05 1017 30.03 846 24.98 -13.9 7 71 -18.1 -0.5
04:10 1017 30.03 846 24.98 -13.9 6.9 71 -18.1 -0.5
04:15 1017 30.03 846 24.98 -13.7 7.3 70 -18.1 -0.6
04:20 1017 30.03 846 24.98 -13.5 7.7 70 -17.9 -0.2
04:25 1017 30.03 846 24.98 -13.5 7.7 70 -17.8 -0.1
04:30 1017 30.03 846 24.98 -13.6 7.6 71 -17.7 0.1
04:35 1017 30.03 846 24.98 -13.6 7.6 72 -17.7 0.2
04:40 1017 30.03 846 24.98 -13.3 8.1 70 -17.8 0
04:45 1017 30.03 846 24.98 -12.9 8.8 70 -17.4 0.7
04:50 1017 30.03 846 24.98 -12.6 9.4 68 -17.3 0.9
04:55 1017 30.03 846 24.98 -12.5 9.5 68 -17.3 0.9
05:00 1017 30.03 846 24.98 -12.3 9.9 66 -17.3 0.9
05:05 1017 30.03 846 24.98 -12.1 10.2 67 -17.1 1.2
05:10 1017 30.03 846 24.98 -12.2 10.1 67 -17.2 1.1
05:15 1017 30.03 846 24.98 -12.2 10.1 70 -16.6 2.2
05:20 1017 30.03 846 24.98 -12.3 9.9 66 -17.4 0.6
05:25 1016 30 846 24.98 -12.4 9.7 75 -16 3.2
05:30 1016 30 845 24.95 -12.7 9.1 72 -16.7 1.9
05:35 1016 30 845 24.95 -12.7 9.1 73 -16.6 2.1
05:40 1016 30 845 24.95 -12.7 9.1 72 -16.7 1.9
05:45 1016 30 845 24.95 -12.6 9.4 71 -16.7 1.9
05:50 1016 30 845 24.95 -12.6 9.3 71 -16.9 1.7
05:55 1016 30 845 24.95 -12.6 9.4 72 -16.6 2.1
06:00 1016 30 845 24.95 -12.6 9.4 72 -16.7 1.9
06:05 1016 30 845 24.95 -12.4 9.8 70 -16.7 2
06:10 1016 30 845 24.95 -12.1 10.3 67 -16.9 1.5
06:15 1016 30 845 24.95 -11.7 10.9 65 -17.1 1.3
06:20 1016 30 845 24.95 -11.5 11.4 64 -17.1 1.3
06:25 1016 30 845 24.95 -11.4 11.4 66 -16.5 2.3
06:30 1016 30 845 24.95 -11.6 11.2 67 -16.6 2.2
06:35 1016 30 845 24.95 -11.6 11.1 68 -16.4 2.4
06:40 1016 30 845 24.95 -11.6 11.2 63 -17.2 1
06:45 1016 30 845 24.95 -11.3 11.7 65 -16.7 2
06:50 1016 30 845 24.95 -11.1 12 66 -16.3 2.6
06:55 1016 30 845 24.95 -11.1 12 68 -16 3.3
07:00 1015 29.97 845 24.95 -11.4 11.5 66 -16.5 2.4
07:05 1015 29.97 844 24.92 -11.3 11.7 65 -16.6 2.1
07:10 1015 29.97 844 24.92 -11.2 11.9 64 -16.7 2
07:15 1015 29.97 844 24.92 -11.3 11.7 64 -16.7 1.9
07:20 1015 29.97 844 24.92 -11.2 11.8 61 -17.3 0.8
07:25 1015 29.97 844 24.92 -11 12.1 64 -16.6 2.1
07:30 1015 29.97 844 24.92 -11.1 12 62 -17 1.3
07:35 1014 29.94 844 24.92 -11.1 12 69 -15.8 3.5
07:40 1014 29.94 844 24.92 -11.5 11.3 70 -16 3.2
07:45 1014 29.94 844 24.92 -11.7 11 70 -16.1 3.1
07:50 1014 29.94 843 24.89 -11.7 10.9 70 -16.2 2.8
07:55 1014 29.94 843 24.89 -11.7 11 70 -16.2 2.9
08:00 1014 29.94 843 24.89 -11.6 11.1 68 -16.4 2.4
08:05 1014 29.94 843 24.89 -11.3 11.7 64 -16.8 1.8
08:10 1014 29.94 843 24.89 -11.1 12 64 -16.7 2
08:15 1014 29.94 843 24.89 -11 12.2 62 -17 1.4
08:20 1014 29.94 843 24.89 -10.8 12.6 61 -16.9 1.6
08:25 1014 29.94 843 24.89 -10.7 12.7 61 -16.9 1.6
08:30 1014 29.94 843 24.89 -10.6 12.9 59 -17.1 1.2
08:35 1014 29.94 843 24.89 -10.3 13.4 63 -16.1 3
08:40 1014 29.94 843 24.89 -10.5 13.2 58 -17.2 1
08:45 1014 29.94 843 24.89 -10.2 13.7 59 -16.7 1.9
08:50 1014 29.94 843 24.89 -10.1 13.8 59 -16.6 2.2
08:55 1014 29.94 843 24.89 -10.1 13.9 61 -16.3 2.7
09:00 1014 29.94 843 24.89 -9.9 14.1 60 -16.2 2.8
09:05 1013 29.91 843 24.89 -9.6 14.8 60 -15.9 3.3
09:10 1013 29.91 843 24.89 -9.8 14.3 61 -16 3.2
09:15 1013 29.91 842 24.86 -9.7 14.5 62 -15.7 3.7
09:20 1013 29.91 842 24.86 -9.6 14.7 63 -15.5 4.1
09:25 1013 29.91 842 24.86 -9.6 14.7 59 -16.2 2.9
09:30 1013 29.91 842 24.86 -8.9 15.9 57 -15.9 3.4
09:35 1013 29.91 842 24.86 -8.3 17.1 57 -15.4 4.2
09:40 1013 29.91 842 24.86 -8.2 17.3 57 -15.2 4.6
09:45 1013 29.91 842 24.86 -7.3 18.9 55 -14.9 5.1
09:50 1013 29.91 842 24.86 -6.5 20.3 52 -14.7 5.6
09:55 1013 29.91 842 24.86 -5.9 21.4 50 -14.7 5.6
10:00 1013 29.91 842 24.86 -5.5 22.1 50 -14.3 6.3
10:05 1013 29.91 842 24.86 -5.7 21.7 50 -14.5 6
10:10 1013 29.91 842 24.86 -5.4 22.3 48 -14.8 5.4
10:15 1013 29.91 842 24.86 -5.4 22.3 49 -14.5 5.8
10:20 1013 29.91 842 24.86 -4.9 23.1 48 -14.4 6.1
10:25 1013 29.91 842 24.86 -4.3 24.3 47 -14 6.8
10:30 1013 29.91 842 24.86 -3.5 25.7 45 -13.8 7.2
10:35 1013 29.91 842 24.86 -4.7 23.6 49 -13.8 7.2
10:40 1013 29.91 842 24.86 -5.3 22.4 50 -14.1 6.6
10:45 1012 29.88 842 24.86 -5 22.9 48 -14.6 5.8
10:50 1012 29.88 841 24.83 -4.7 23.6 46 -14.7 5.5
10:55 1012 29.88 841 24.83 -4.8 23.4 47 -14.5 5.9
11:00 1012 29.88 841 24.83 -4.9 23.1 48 -14.3 6.2
11:05 1012 29.88 841 24.83 -4.6 23.7 46 -14.6 5.7
11:10 1012 29.88 841 24.83 -4.4 24 47 -14.2 6.5
11:15 1011 29.85 841 24.83 -5 23 45 -15.1 4.8
11:20 1011 29.85 840 24.81 -4.1 24.7 44 -14.5 5.8
11:25 1011 29.85 840 24.81 -3.4 25.9 42 -14.5 5.9
11:30 1011 29.85 840 24.81 -3.5 25.6 44 -14.2 6.4
11:35 1011 29.85 840 24.81 -3.6 25.5 44 -14.3 6.3
11:40 1010 29.83 840 24.81 -3 26.6 41 -14.4 6.1
11:45 1010 29.83 839 24.78 -2.1 28.2 41 -13.8 7.1
11:50 1010 29.83 839 24.78 -1.8 28.8 40 -13.8 7.2
11:55 1010 29.83 839 24.78 -1.7 28.9 41 -13.4 7.8
12:00 1010 29.83 839 24.78 -1.2 29.9 40 -13.1 8.4
12:05 1010 29.83 839 24.78 -1.5 29.4 40 -13.4 7.9
12:10 1010 29.83 839 24.78 -1.5 29.3 38 -14 6.8
12:15 1010 29.83 839 24.78 -1.7 29 41 -13.3 8.1
12:20 1010 29.83 839 24.78 -2.3 27.9 42 -13.5 7.7
12:25 1010 29.83 839 24.78 -2.7 27.1 45 -13.2 8.2
12:30 1010 29.83 839 24.78 -3.5 25.6 48 -13 8.7
12:35 1010 29.83 839 24.78 -3.9 25 48 -13.5 7.7
12:40 1010 29.83 839 24.78 -3.5 25.7 44 -14 6.8
12:45 1010 29.83 839 24.78 -3.8 25.2 45 -14.1 6.6
12:50 1010 29.83 839 24.78 -3.2 26.2 40 -15 5
12:55 1010 29.83 839 24.78 -2.8 26.9 42 -14 6.7
13:00 1010 29.83 839 24.78 -2.7 27.2 39 -14.7 5.6
13:05 1010 29.83 839 24.78 -3.4 25.9 43 -14.4 6.1
13:10 1010 29.83 839 24.78 -3.7 25.4 46 -13.8 7.2
13:15 1010 29.83 839 24.78 -3.8 25.2 45 -13.9 6.9
13:20 1010 29.83 839 24.78 -3.7 25.3 46 -13.7 7.3
13:25 1010 29.83 839 24.78 -3.7 25.3 43 -14.5 5.9
13:30 1010 29.83 839 24.78 -3.9 25.1 44 -14.5 6
13:35 1010 29.83 839 24.78 -3.9 25 43 -14.6 5.7
13:40 1010 29.83 839 24.78 -4 24.9 45 -14.3 6.3
13:45 1010 29.83 839 24.78 -5.1 22.8 51 -13.8 7.1
13:50 1010 29.83 839 24.78 -6 21.2 52 -14.2 6.4
13:55 1010 29.83 839 24.78 -6 21.1 50 -14.9 5.1
14:00 1010 29.83 839 24.78 -5.8 21.6 46 -15.7 3.8
14:05 1010 29.83 839 24.78 -5.2 22.6 45 -15.5 4.1
14:10 1010 29.83 839 24.78 -5.2 22.6 48 -14.6 5.7
14:15 1009 29.8 839 24.78 -5 23.1 46 -15 5
14:20 1009 29.8 839 24.78 -4.9 23.1 43 -15.7 3.7
14:25 1009 29.8 839 24.78 -5 23 44 -15.4 4.2
14:30 1009 29.8 839 24.78 -4.6 23.7 42 -15.7 3.7
14:35 1009 29.8 839 24.78 -4.1 24.6 39 -16.3 2.7
14:40 1009 29.8 839 24.78 -4 24.8 38 -16.2 2.9
14:45 1009 29.8 838 24.75 -3.9 25 39 -15.8 3.5
14:50 1009 29.8 839 24.78 -3.5 25.7 39 -15.5 4.2
14:55 1009 29.8 839 24.78 -2.9 26.8 35 -16.3 2.6
15:00 1009 29.8 838 24.75 -2.6 27.3 36 -15.8 3.5
15:05 1009 29.8 838 24.75 -2.6 27.3 33 -16.8 1.7
15:10 1009 29.8 838 24.75 -3 26.7 37 -15.8 3.5
15:15 1009 29.8 839 24.78 -3.3 26 35 -16.7 2
15:20 1009 29.8 839 24.78 -3.7 25.3 35 -17 1.4
15:25 1009 29.8 839 24.78 -4.5 23.9 40 -16.3 2.6
15:30 1009 29.8 839 24.78 -5 22.9 42 -16 3.3
15:35 1009 29.8 839 24.78 -4.8 23.4 43 -15.4 4.2
15:40 1009 29.8 839 24.78 -4.7 23.6 40 -16.4 2.5
15:45 1009 29.8 839 24.78 -4.7 23.5 40 -16.5 2.2
15:50 1009 29.8 839 24.78 -4.6 23.7 39 -16.7 2
15:55 1009 29.8 838 24.75 -4.7 23.5 41 -16 3.2
16:00 1009 29.8 839 24.78 -4.7 23.6 44 -15.1 4.8
16:05 1009 29.8 838 24.75 -4.9 23.1 45 -15.1 4.9
16:10 1009 29.8 838 24.75 -4.5 23.9 44 -15 5
16:15 1009 29.8 838 24.75 -4.4 24.1 42 -15.4 4.3
16:20 1009 29.8 838 24.75 -4.3 24.3 43 -15.1 4.8
16:25 1009 29.8 838 24.75 -4.4 24 43 -15.3 4.5
16:30 1009 29.8 838 24.75 -4.7 23.5 45 -14.9 5.1
16:35 1009 29.8 838 24.75 -4.4 24.1 47 -14.2 6.5
16:40 1009 29.8 839 24.78 -4.2 24.4 48 -13.7 7.3
16:45 1009 29.8 839 24.78 -4.5 23.8 48 -13.9 7
16:50 1009 29.8 839 24.78 -4.3 24.2 51 -13 8.7
16:55 1009 29.8 839 24.78 -4.5 23.9 51 -13.2 8.3
17:00 1009 29.8 839 24.78 -4.2 24.4 50 -13.2 8.3
17:05 1009 29.8 839 24.78 -4.4 24.1 54 -12.4 9.6
17:10 1009 29.8 839 24.78 -4.6 23.8 54 -12.6 9.3
17:15 1009 29.8 839 24.78 -4.6 23.6 54 -12.5 9.5
17:20 1010 29.83 839 24.78 -4.9 23.1 56 -12.4 9.7
17:25 1010 29.83 839 24.78 -5.3 22.5 56 -12.7 9.2
17:30 1010 29.83 839 24.78 -5.9 21.4 56 -13.2 8.2
17:35 1010 29.83 839 24.78 -5.9 21.3 55 -13.7 7.4
17:40 1010 29.83 839 24.78 -5.9 21.4 55 -13.5 7.7
17:45 1009 29.8 839 24.78 -5.9 21.5 53 -13.9 7
17:50 1010 29.83 839 24.78 -5.7 21.8 55 -13.3 8
17:55 1010 29.83 839 24.78 -5.2 22.6 52 -13.5 7.6
18:00 1010 29.83 839 24.78 -5.4 22.4 56 -12.9 8.8
18:05 1010 29.83 839 24.78 -4.5 23.9 47 -14.2 6.4
18:10 1010 29.83 839 24.78 -4.1 24.6 49 -13.4 7.9
18:15 1010 29.83 839 24.78 -3.4 25.8 45 -13.7 7.3
18:20 1010 29.83 839 24.78 -2.4 27.6 44 -13 8.6
18:25 1010 29.83 839 24.78 -3.4 25.9 52 -12 10.4
18:30 1010 29.83 839 24.78 -4.6 23.7 50 -13.4 7.8
18:35 1010 29.83 839 24.78 -4.3 24.3 46 -14.3 6.3
18:40 1010 29.83 839 24.78 -3.6 25.4 42 -14.8 5.3
18:45 1010 29.83 839 24.78 -3.7 25.4 47 -13.5 7.7
18:50 1010 29.83 839 24.78 -3.8 25.2 47 -13.6 7.6
18:55 1010 29.83 839 24.78 -3.9 25 49 -13 8.6
19:00 1010 29.83 839 24.78 -4.3 24.3 54 -12.3 9.8
19:05 1010 29.83 839 24.78 -4.5 23.9 55 -12.2 10.1
19:10 1010 29.83 839 24.78 -4.6 23.8 55 -12.4 9.8
19:15 1010 29.83 839 24.78 -4.7 23.5 54 -12.7 9.1
19:20 1010 29.83 839 24.78 -4.8 23.4 55 -12.5 9.5
19:25 1010 29.83 839 24.78 -4.9 23.1 57 -12.3 9.9
19:30 1010 29.83 839 24.78 -5 22.9 57 -12.4 9.7
19:35 1010 29.83 839 24.78 -5 23 54 -12.9 8.7
19:40 1010 29.83 839 24.78 -4.7 23.5 50 -13.6 7.6
19:45 1010 29.83 839 24.78 -4.1 24.5 48 -13.6 7.6
19:50 1010 29.83 839 24.78 -3.8 25.2 50 -12.8 9
19:55 1010 29.83 839 24.78 -3.7 25.3 51 -12.5 9.4
20:00 1010 29.83 839 24.78 -3.7 25.3 54 -11.8 10.8
20:05 1010 29.83 839 24.78 -3.8 25.2 55 -11.4 11.4
20:10 1010 29.83 839 24.78 -3.8 25.2 57 -11.1 12
20:15 1010 29.83 839 24.78 -4 24.9 59 -10.8 12.6
20:20 1010 29.83 839 24.78 -4 24.7 61 -10.5 13.1
20:25 1010 29.83 839 24.78 -4.2 24.5 65 -9.7 14.5
20:30 1010 29.83 839 24.78 -4.4 24.1 68 -9.4 15.1
20:35 1010 29.83 839 24.78 -4.5 23.9 69 -9.4 15.1
20:40 1010 29.83 839 24.78 -4.5 23.9 68 -9.7 14.6
20:45 1010 29.83 839 24.78 -4.4 24 69 -9.2 15.4
20:50 1010 29.83 839 24.78 -4.3 24.2 68 -9.3 15.2
20:55 1010 29.83 840 24.81 -4.4 24 67 -9.8 14.4
21:00 1010 29.83 840 24.81 -4.9 23.1 65 -10.4 13.2
21:05 1010 29.83 840 24.81 -4.7 23.5 66 -10.1 13.9
21:10 1010 29.83 840 24.81 -4.4 24.2 66 -9.7 14.5
21:15 1010 29.83 840 24.81 -4.2 24.4 63 -10.2 13.6
21:20 1011 29.85 840 24.81 -4.3 24.3 63 -10.3 13.5
21:25 1011 29.85 840 24.81 -4.4 24 64 -10.2 13.7
21:30 1011 29.85 840 24.81 -4.5 23.9 61 -11 12.2
21:35 1011 29.85 840 24.81 -4.4 24 56 -12 10.3
21:40 1011 29.85 840 24.81 -4.6 23.8 54 -12.5 9.5
21:45 1011 29.85 840 24.81 -4.7 23.5 53 -12.8 9
21:50 1011 29.85 840 24.81 -4.7 23.5 53 -13 8.7
21:55 1011 29.85 840 24.81 -4.7 23.5 52 -13.1 8.4
22:00 1011 29.85 840 24.81 -4.8 23.3 53 -13 8.6
22:05 1011 29.85 840 24.81 -5 23 54 -12.9 8.8
22:10 1011 29.85 840 24.81 -5.3 22.5 55 -13 8.7
22:15 1011 29.85 840 24.81 -5.5 22.2 55 -13.1 8.5
22:20 1011 29.85 840 24.81 -5.7 21.8 56 -13.1 8.5
22:25 1011 29.85 840 24.81 -5.9 21.3 57 -13.1 8.4
22:30 1011 29.85 840 24.81 -6.2 20.9 58 -13.2 8.3
22:35 1011 29.85 840 24.81 -6.4 20.5 59 -13.2 8.2
22:40 1011 29.85 840 24.81 -6.6 20.1 59 -13.3 8.1
22:45 1011 29.85 840 24.81 -6.8 19.8 60 -13.2 8.2
22:50 1011 29.85 840 24.81 -7 19.4 62 -13.1 8.5
22:55 1011 29.85 840 24.81 -7.2 19 62 -13.2 8.2
23:00 1011 29.85 840 24.81 -7.3 18.8 63 -13.2 8.3
23:05 1011 29.85 840 24.81 -7.4 18.7 63 -13.2 8.2
23:10 1011 29.85 840 24.81 -7.4 18.7 63 -13.3 8.1
23:15 1011 29.85 841 24.83 -7.3 18.8 63 -13.1 8.4
23:20 1011 29.85 841 24.83 -7.2 19.1 64 -13 8.7
23:25 1011 29.85 841 24.83 -7.1 19.3 63 -13 8.7
23:30 1012 29.88 841 24.83 -7 19.4 66 -12.3 9.9
23:35 1012 29.88 841 24.83 -7 19.4 68 -11.9 10.5
23:40 1012 29.88 841 24.83 -7 19.4 71 -11.4 11.4
23:45 1012 29.88 841 24.83 -7.1 19.3 72 -11.3 11.6
23:50 1012 29.88 841 24.83 -7.1 19.1 74 -10.9 12.3
23:55 1012 29.88 841 24.83 -7.2 19 77 -10.5 13
24:00 1012 29.88 841 24.83 -7.4 18.8 81 -10 13.9